X  Close Metar Aviation Weather Data     EINN Shannon Airport
Temperature
6°C Temperature
4°C Dewpoint
87% Humidity



Wind
3 KM/H
2 MPH
1 M/S
2 KTS



50°
NE
Current Conditions

Clear Clear
Pressure 1021.92 (hPa) - 30.18 (inHg)
Visibility 6.2 (mile) - 10 (km)
Airport
Airport-code EINN

Location: Shannon Airport
Distance: 177 (km)

Metar:
EINN 180300Z 05002KT CAVOK 06/04 Q1022 NOSIG

Time: 18-06-2021 04:00 IST